Time;durP1;ratioP1;P1;durP2;ratioP2;P2;SDS_P1;SDS_P2;PMS_P1;PMS_P2;Temp;Humidity;BMP_temperature;BMP_pressure;BME280_temperature;BME280_humidity;BME280_pressure;Samples;Min_cycle;Max_cycle;Signal;HPM_P1;HPM_P2
2022/05/01 00:00:39;;;;;;;1.35;0.10;;;25.00;32.20;;;;;;5047544;28;20045;-64
2022/05/01 00:03:07;;;;;;;0.32;0.10;;;25.00;32.20;;;;;;5045844;28;20061;-67
2022/05/01 00:05:34;;;;;;;1.08;0.10;;;25.00;32.30;;;;;;5044542;28;20520;-66
2022/05/01 00:08:03;;;;;;;3.45;0.10;;;25.00;32.30;;;;;;5041339;28;20047;-65
2022/05/01 00:10:31;;;;;;;1.08;0.10;;;25.00;32.40;;;;;;5044038;28;20501;-66
2022/05/01 00:13:00;;;;;;;2.20;0.10;;;25.00;32.40;;;;;;5045475;28;20041;-65
2022/05/01 00:15:28;;;;;;;2.13;0.10;;;25.10;32.50;;;;;;5044992;28;20041;-64
2022/05/01 00:17:55;;;;;;;1.45;0.10;;;25.00;32.40;;;;;;5027713;28;20111;-63
2022/05/01 00:20:23;;;;;;;0.73;0.10;;;25.10;32.40;;;;;;5040627;28;20132;-65
2022/05/01 00:22:50;;;;;;;0.52;0.10;;;25.00;32.40;;;;;;5044148;28;20683;-64
2022/05/01 00:25:17;;;;;;;0.10;0.10;;;25.00;32.30;;;;;;5041463;28;20117;-64
2022/05/01 00:27:44;;;;;;;0.20;0.20;;;25.00;32.40;;;;;;5046115;28;20144;-67
2022/05/01 00:30:13;;;;;;;0.73;0.10;;;25.00;32.30;;;;;;5024001;28;20160;-66
2022/05/01 00:38:10;;;;;;;1.45;0.10;;;25.00;32.40;;;;;;5023360;28;20128;-67
2022/05/01 00:40:37;;;;;;;2.05;0.30;;;25.00;32.50;;;;;;5041821;28;20555;-65
2022/05/01 00:43:05;;;;;;;1.17;0.20;;;25.00;32.50;;;;;;5041544;28;20115;-65
2022/05/01 00:45:35;;;;;;;0.50;0.40;;;25.00;32.60;;;;;;5045491;28;20061;-67
2022/05/01 00:48:02;;;;;;;3.05;0.10;;;25.00;32.60;;;;;;5042777;28;20045;-63
2022/05/01 00:50:29;;;;;;;0.40;0.10;;;25.00;32.50;;;;;;5044912;28;20067;-67
2022/05/01 00:52:56;;;;;;;0.28;0.10;;;25.00;32.60;;;;;;5044303;28;20059;-63
2022/05/01 00:55:23;;;;;;;0.30;0.10;;;25.00;32.60;;;;;;5045278;28;20041;-66
2022/05/01 00:57:51;;;;;;;0.85;0.10;;;25.00;32.60;;;;;;5046949;28;20040;-63
2022/05/01 01:00:19;;;;;;;0.13;0.10;;;25.00;32.60;;;;;;5044883;28;20051;-64
2022/05/01 01:02:50;;;;;;;0.10;0.10;;;25.00;32.60;;;;;;5044566;28;20591;-64
2022/05/01 01:05:17;;;;;;;0.20;0.20;;;25.00;32.60;;;;;;5045027;28;20033;-62
2022/05/01 01:07:44;;;;;;;0.68;0.10;;;24.90;32.60;;;;;;5044934;28;20037;-62
2022/05/01 01:10:11;;;;;;;2.58;0.10;;;24.90;32.50;;;;;;5045363;28;20552;-65
2022/05/01 01:12:57;;;;;;;1.25;0.30;;;24.90;32.50;;;;;;5045900;28;20055;-63
2022/05/01 01:15:25;;;;;;;0.30;0.17;;;24.90;32.50;;;;;;5044353;28;20140;-63
2022/05/01 01:17:54;;;;;;;0.10;0.10;;;24.90;32.60;;;;;;5044758;28;20079;-63
2022/05/01 01:20:24;;;;;;;1.58;0.10;;;24.90;32.60;;;;;;5039147;28;20536;-64
2022/05/01 01:22:54;;;;;;;0.95;0.10;;;24.90;32.60;;;;;;5044139;28;20055;-64
2022/05/01 01:25:22;;;;;;;0.17;0.10;;;24.90;32.60;;;;;;5044339;28;20169;-63
2022/05/01 01:27:50;;;;;;;0.25;0.10;;;24.90;32.60;;;;;;5046067;28;20067;-64
2022/05/01 01:33:03;;;;;;;0.47;0.10;;;24.90;32.70;;;;;;5044379;28;20052;-65
2022/05/01 01:35:33;;;;;;;1.85;0.15;;;24.90;32.70;;;;;;5044275;28;20064;-63
2022/05/01 01:38:02;;;;;;;0.30;0.10;;;24.90;32.80;;;;;;5043778;28;20080;-63
2022/05/01 01:40:31;;;;;;;0.20;0.20;;;24.90;32.80;;;;;;5044676;28;20037;-63
2022/05/01 01:42:59;;;;;;;2.25;0.10;;;24.90;32.80;;;;;;5045416;28;20048;-62
2022/05/01 01:45:28;;;;;;;0.22;0.10;;;24.90;32.90;;;;;;5036325;28;20068;-64
2022/05/01 01:47:56;;;;;;;0.30;0.10;;;24.90;33.00;;;;;;5044530;28;20049;-63
2022/05/01 01:50:24;;;;;;;0.98;0.10;;;24.90;33.10;;;;;;5044186;28;20124;-64
2022/05/01 01:52:51;;;;;;;1.83;0.10;;;24.90;33.10;;;;;;5040634;28;20063;-65
2022/05/01 01:55:20;;;;;;;0.30;0.10;;;24.90;33.10;;;;;;5043741;28;20041;-64
2022/05/01 01:57:48;;;;;;;3.10;0.10;;;24.90;33.10;;;;;;5045726;28;20072;-65
2022/05/01 02:00:16;;;;;;;0.20;0.10;;;24.90;33.20;;;;;;5042387;28;20036;-64
2022/05/01 02:02:43;;;;;;;0.10;0.10;;;24.90;33.30;;;;;;5043757;28;20052;-63
2022/05/01 02:05:10;;;;;;;2.75;0.10;;;24.90;33.20;;;;;;5042849;28;20046;-65
2022/05/01 02:07:37;;;;;;;0.13;0.10;;;24.90;33.20;;;;;;5040320;28;20045;-65
2022/05/01 02:10:05;;;;;;;0.55;0.28;;;24.90;33.30;;;;;;5023069;28;20048;-61
2022/05/01 02:12:34;;;;;;;0.85;0.10;;;24.90;33.30;;;;;;5038564;28;20128;-61
2022/05/01 02:15:02;;;;;;;0.38;0.10;;;24.80;33.30;;;;;;5043191;28;20068;-61
2022/05/01 02:17:29;;;;;;;0.40;0.10;;;24.80;33.40;;;;;;5041136;28;20048;-61
2022/05/01 02:19:56;;;;;;;0.20;0.10;;;24.80;33.40;;;;;;5041024;28;20040;-61
2022/05/01 02:22:23;;;;;;;1.42;0.28;;;24.80;33.50;;;;;;5042770;28;20476;-60
2022/05/01 02:24:51;;;;;;;0.52;0.40;;;24.90;33.60;;;;;;5046743;28;20049;-68
2022/05/01 02:27:18;;;;;;;8.07;0.88;;;24.80;33.60;;;;;;5044513;28;20044;-55
2022/05/01 02:29:46;;;;;;;11.55;0.68;;;24.90;33.90;;;;;;5044743;28;20041;-56
2022/05/01 02:32:13;;;;;;;1.20;0.22;;;24.80;33.90;;;;;;5043522;28;20052;-56
2022/05/01 02:34:41;;;;;;;1.55;0.22;;;24.80;33.90;;;;;;5044994;28;20040;-56
2022/05/01 02:37:09;;;;;;;5.03;0.90;;;24.80;33.90;;;;;;5045821;28;20041;-54
2022/05/01 02:39:36;;;;;;;0.20;0.10;;;24.90;34.00;;;;;;5046150;28;20045;-54
2022/05/01 02:42:04;;;;;;;0.20;0.10;;;24.80;33.90;;;;;;5044123;28;20425;-56
2022/05/01 02:44:31;;;;;;;2.00;0.55;;;24.80;33.90;;;;;;5044370;28;20063;-57
2022/05/01 02:46:59;;;;;;;1.10;0.45;;;24.80;33.80;;;;;;5044682;28;20167;-54
2022/05/01 02:49:26;;;;;;;5.93;0.68;;;24.80;33.80;;;;;;5044750;28;20712;-56
2022/05/01 02:51:53;;;;;;;1.85;0.63;;;24.80;33.70;;;;;;5046501;28;20128;-55
2022/05/01 02:54:22;;;;;;;1.75;0.63;;;24.80;33.70;;;;;;5044527;28;20107;-56
2022/05/01 02:56:51;;;;;;;0.10;0.10;;;24.70;33.60;;;;;;5047737;28;20090;-55
2022/05/01 02:59:18;;;;;;;0.98;0.82;;;24.80;33.60;;;;;;5047429;28;20047;-55
2022/05/01 03:01:45;;;;;;;0.10;0.10;;;24.70;33.50;;;;;;5047857;28;20067;-50
2022/05/01 03:04:14;;;;;;;0.35;0.20;;;24.70;33.40;;;;;;5047957;28;20557;-51
2022/05/01 03:06:41;;;;;;;2.25;0.32;;;24.70;33.40;;;;;;5049855;28;20055;-54
2022/05/01 03:09:09;;;;;;;3.20;0.10;;;24.70;33.30;;;;;;5029939;28;20044;-53
2022/05/01 03:11:36;;;;;;;0.75;0.10;;;24.70;33.30;;;;;;5047722;28;20106;-52
2022/05/01 03:14:04;;;;;;;0.55;0.10;;;24.70;33.30;;;;;;5047700;28;20041;-53
2022/05/01 03:16:31;;;;;;;3.53;0.10;;;24.70;33.30;;;;;;5044281;28;20456;-58
2022/05/01 03:24:29;;;;;;;0.10;0.10;;;24.70;33.20;;;;;;5048878;28;20460;-55
2022/05/01 03:26:56;;;;;;;0.40;0.10;;;24.60;33.10;;;;;;5029913;28;20045;-52
2022/05/01 03:29:23;;;;;;;0.32;0.20;;;24.60;33.00;;;;;;5047336;28;20049;-57
2022/05/01 03:31:50;;;;;;;0.10;0.10;;;24.60;33.00;;;;;;5048021;28;20501;-51
2022/05/01 03:34:17;;;;;;;0.30;0.20;;;24.60;33.00;;;;;;5047331;28;20815;-58
2022/05/01 03:36:47;;;;;;;1.00;0.10;;;24.60;33.00;;;;;;5049372;28;20040;-54
2022/05/01 03:39:15;;;;;;;1.52;0.15;;;24.60;32.90;;;;;;5047664;28;20069;-57
2022/05/01 03:41:42;;;;;;;0.15;0.10;;;24.60;32.90;;;;;;5047158;28;20086;-55
2022/05/01 03:44:09;;;;;;;0.20;0.20;;;24.60;32.90;;;;;;5045033;28;20095;-57
2022/05/01 03:46:38;;;;;;;0.10;0.10;;;24.60;32.90;;;;;;5029961;28;20048;-57
2022/05/01 03:49:05;;;;;;;2.92;0.10;;;24.60;32.90;;;;;;5048076;28;20138;-56
2022/05/01 03:51:33;;;;;;;0.10;0.10;;;24.60;32.80;;;;;;5048026;28;20505;-57
2022/05/01 03:54:03;;;;;;;0.30;0.20;;;24.50;32.70;;;;;;5046756;28;20057;-55
2022/05/01 03:56:30;;;;;;;0.52;0.10;;;24.50;32.70;;;;;;5047051;28;20124;-57
2022/05/01 03:58:57;;;;;;;0.22;0.10;;;24.50;32.70;;;;;;5046630;28;20052;-58
2022/05/01 04:01:25;;;;;;;1.33;0.10;;;24.50;32.70;;;;;;5028696;28;20133;-55
2022/05/01 04:03:52;;;;;;;2.50;0.10;;;24.50;32.70;;;;;;5048780;28;20053;-58
2022/05/01 04:06:20;;;;;;;0.20;0.13;;;24.50;32.70;;;;;;5045955;28;20049;-57
2022/05/01 04:08:48;;;;;;;0.10;0.10;;;24.50;32.70;;;;;;5046434;28;20051;-58
2022/05/01 04:11:16;;;;;;;0.20;0.20;;;24.50;32.60;;;;;;5045926;28;20045;-58
2022/05/01 04:13:43;;;;;;;0.25;0.25;;;24.50;32.60;;;;;;5046703;28;20805;-58
2022/05/01 04:16:10;;;;;;;1.40;0.10;;;24.50;32.60;;;;;;5046607;28;20518;-57
2022/05/01 04:18:38;;;;;;;0.10;0.10;;;24.50;32.60;;;;;;5046678;28;20834;-57
2022/05/01 04:21:05;;;;;;;1.42;0.20;;;24.40;32.60;;;;;;5046680;28;20057;-56
2022/05/01 04:23:33;;;;;;;1.85;0.10;;;24.40;32.50;;;;;;5046440;28;20464;-56
2022/05/01 04:26:00;;;;;;;0.32;0.10;;;24.40;32.50;;;;;;5028426;28;20041;-52
2022/05/01 04:28:28;;;;;;;0.30;0.10;;;24.40;32.50;;;;;;5046437;28;20033;-53
2022/05/01 04:30:55;;;;;;;0.10;0.10;;;24.40;32.50;;;;;;5047951;28;20124;-57
2022/05/01 04:33:22;;;;;;;0.32;0.10;;;24.40;32.50;;;;;;5046245;28;20037;-57
2022/05/01 04:35:51;;;;;;;1.95;0.10;;;24.40;32.50;;;;;;5046460;28;20507;-57
2022/05/01 04:38:20;;;;;;;0.10;0.10;;;24.40;32.50;;;;;;5046380;28;20041;-56
2022/05/01 04:40:48;;;;;;;0.10;0.10;;;24.40;32.50;;;;;;5028748;28;20481;-55
2022/05/01 04:43:18;;;;;;;0.20;0.10;;;24.40;32.60;;;;;;5045593;28;20070;-57
2022/05/01 04:45:48;;;;;;;0.10;0.10;;;24.40;32.50;;;;;;5029486;28;20106;-56
2022/05/01 04:48:16;;;;;;;1.02;0.20;;;24.40;32.50;;;;;;5046138;28;20535;-56
2022/05/01 04:50:43;;;;;;;1.17;0.20;;;24.40;32.50;;;;;;5046074;28;20045;-53
2022/05/01 04:53:11;;;;;;;0.10;0.10;;;24.40;32.50;;;;;;5046205;28;20045;-56
2022/05/01 04:55:39;;;;;;;0.10;0.10;;;24.40;33.10;;;;;;5046288;28;20051;-55
2022/05/01 04:58:07;;;;;;;0.10;0.10;;;24.40;32.50;;;;;;5046176;28;20061;-57
2022/05/01 05:00:35;;;;;;;0.10;0.10;;;24.40;32.40;;;;;;5045917;28;20033;-56
2022/05/01 05:03:05;;;;;;;0.28;0.28;;;24.40;32.40;;;;;;5045472;28;20661;-53
2022/05/01 05:05:34;;;;;;;0.40;0.40;;;24.40;32.40;;;;;;5045650;28;20076;-56
2022/05/01 05:10:45;;;;;;;0.30;0.10;;;24.30;32.40;;;;;;5045149;28;20557;-52
2022/05/01 05:13:12;;;;;;;0.65;0.10;;;24.30;32.40;;;;;;5045757;28;20052;-56
2022/05/01 05:15:39;;;;;;;0.40;0.10;;;24.30;32.40;;;;;;5046586;28;20056;-52
2022/05/01 05:18:08;;;;;;;1.65;0.10;;;24.30;32.30;;;;;;5045299;28;20040;-58
2022/05/01 05:20:35;;;;;;;1.45;0.13;;;24.30;32.30;;;;;;5044989;28;20466;-57
2022/05/01 05:23:02;;;;;;;0.20;0.20;;;24.30;32.30;;;;;;5045319;28;20402;-56
2022/05/01 05:25:29;;;;;;;0.52;0.10;;;24.30;32.30;;;;;;5043567;28;20136;-57
2022/05/01 05:27:56;;;;;;;0.57;0.20;;;24.30;32.30;;;;;;5046960;28;20537;-57
2022/05/01 05:30:24;;;;;;;0.55;0.17;;;24.30;32.30;;;;;;5044760;28;20045;-53
2022/05/01 05:32:50;;;;;;;0.10;0.10;;;24.30;32.30;;;;;;5045032;28;20047;-54
2022/05/01 05:35:19;;;;;;;1.27;0.10;;;24.30;32.30;;;;;;5044927;28;20374;-55
2022/05/01 05:37:46;;;;;;;0.10;0.10;;;24.30;32.30;;;;;;5045092;28;20044;-54
2022/05/01 05:40:13;;;;;;;0.20;0.20;;;24.30;32.30;;;;;;5045200;28;20577;-53
2022/05/01 05:42:41;;;;;;;1.65;0.43;;;24.30;32.20;;;;;;5046287;28;20056;-55
2022/05/01 05:45:10;;;;;;;0.32;0.10;;;24.30;32.20;;;;;;5044582;28;20094;-55
2022/05/01 05:47:37;;;;;;;0.82;0.55;;;24.30;32.20;;;;;;5043089;28;20044;-55
2022/05/01 05:50:05;;;;;;;0.30;0.10;;;24.30;32.20;;;;;;5045058;28;20041;-55
2022/05/01 05:52:34;;;;;;;0.38;0.10;;;24.30;32.20;;;;;;5045352;28;20044;-53
2022/05/01 05:55:02;;;;;;;0.50;0.30;;;24.30;32.20;;;;;;5046445;28;20084;-55
2022/05/01 05:57:29;;;;;;;0.35;0.20;;;24.30;32.20;;;;;;5045475;28;20045;-55
2022/05/01 05:59:56;;;;;;;0.95;0.10;;;24.30;32.20;;;;;;5045194;28;20068;-56
2022/05/01 06:02:23;;;;;;;0.25;0.22;;;24.30;32.20;;;;;;5044594;28;20049;-54
2022/05/01 06:04:50;;;;;;;0.10;0.10;;;24.30;32.20;;;;;;5045034;28;20055;-56
2022/05/01 06:07:17;;;;;;;1.00;0.10;;;24.30;32.10;;;;;;5044673;28;20037;-52
2022/05/01 06:09:46;;;;;;;1.52;0.20;;;24.30;32.10;;;;;;5046887;28;20037;-57
2022/05/01 06:12:12;;;;;;;0.32;0.10;;;24.30;32.10;;;;;;5044693;28;20041;-56
2022/05/01 06:14:40;;;;;;;0.57;0.30;;;24.30;32.10;;;;;;5044432;28;20083;-55
2022/05/01 06:17:07;;;;;;;0.40;0.10;;;24.30;32.10;;;;;;5044919;28;20394;-55
2022/05/01 06:19:34;;;;;;;0.73;0.17;;;24.30;32.00;;;;;;5039695;28;20079;-58
2022/05/01 06:22:01;;;;;;;0.20;0.10;;;24.40;32.10;;;;;;5046471;28;20041;-54
2022/05/01 06:24:28;;;;;;;0.30;0.10;;;24.40;32.10;;;;;;5045984;28;20045;-57
2022/05/01 06:26:56;;;;;;;0.20;0.20;;;24.40;32.10;;;;;;5044433;28;20045;-55
2022/05/01 06:29:23;;;;;;;0.22;0.20;;;24.40;32.00;;;;;;5044266;28;20077;-57
2022/05/01 06:31:51;;;;;;;0.20;0.10;;;24.40;32.00;;;;;;5031317;28;20037;-57
2022/05/01 06:34:18;;;;;;;1.75;0.43;;;24.40;32.00;;;;;;5048570;28;20413;-58
2022/05/01 06:36:45;;;;;;;0.50;0.10;;;24.40;32.00;;;;;;5050510;28;20434;-54
2022/05/01 06:39:12;;;;;;;0.80;0.13;;;24.40;32.00;;;;;;5048728;28;20124;-57
2022/05/01 06:41:39;;;;;;;0.50;0.50;;;24.40;32.60;;;;;;5048018;28;20040;-57
2022/05/01 06:44:07;;;;;;;0.20;0.20;;;24.40;32.00;;;;;;5048074;28;20041;-54
2022/05/01 06:46:34;;;;;;;0.90;0.13;;;24.40;32.00;;;;;;5048508;28;20063;-56
2022/05/01 06:49:01;;;;;;;0.28;0.22;;;24.40;32.00;;;;;;5050035;28;20045;-57
2022/05/01 06:51:29;;;;;;;0.20;0.20;;;24.40;31.90;;;;;;5048596;28;20041;-53
2022/05/01 06:53:56;;;;;;;1.20;0.60;;;24.50;32.00;;;;;;5048166;28;20148;-52
2022/05/01 06:56:23;;;;;;;0.30;0.20;;;24.50;32.00;;;;;;5047776;28;20041;-55
2022/05/01 06:58:50;;;;;;;0.28;0.20;;;24.50;32.00;;;;;;5048202;28;20120;-53
2022/05/01 07:01:18;;;;;;;0.20;0.20;;;24.50;32.00;;;;;;5029793;28;20052;-52
2022/05/01 07:03:46;;;;;;;0.63;0.17;;;24.50;32.00;;;;;;5049695;28;20093;-55
2022/05/01 07:06:13;;;;;;;1.30;0.30;;;24.50;32.00;;;;;;5047811;28;20742;-52
2022/05/01 07:08:40;;;;;;;0.63;0.20;;;24.50;32.00;;;;;;5047611;28;20051;-56
2022/05/01 07:11:07;;;;;;;0.20;0.10;;;24.50;32.00;;;;;;5048065;28;20855;-56
2022/05/01 07:13:35;;;;;;;0.50;0.20;;;24.50;32.00;;;;;;5048159;28;20047;-53
2022/05/01 07:16:02;;;;;;;0.30;0.20;;;24.60;32.00;;;;;;5049375;28;20094;-56
2022/05/01 07:18:30;;;;;;;0.55;0.10;;;24.60;32.00;;;;;;5049430;28;20099;-56
2022/05/01 07:20:58;;;;;;;0.20;0.20;;;24.60;31.90;;;;;;5048041;28;20044;-56
2022/05/01 07:23:26;;;;;;;0.60;0.38;;;24.60;31.90;;;;;;5048096;28;20037;-52
2022/05/01 07:25:53;;;;;;;1.13;0.30;;;24.60;31.90;;;;;;5047815;28;20041;-53
2022/05/01 07:28:20;;;;;;;0.20;0.20;;;24.60;31.90;;;;;;5029935;28;20071;-53
2022/05/01 07:30:47;;;;;;;0.20;0.20;;;24.60;31.80;;;;;;5049636;28;20045;-52
2022/05/01 07:33:14;;;;;;;0.50;0.40;;;24.60;31.80;;;;;;5030366;28;20139;-56
2022/05/01 07:35:43;;;;;;;0.30;0.20;;;24.60;31.80;;;;;;5047448;28;20059;-54
2022/05/01 07:38:10;;;;;;;1.90;0.30;;;24.60;31.80;;;;;;5047712;28;20049;-56
2022/05/01 07:40:37;;;;;;;0.20;0.20;;;24.70;31.90;;;;;;5047579;28;20804;-53
2022/05/01 07:43:04;;;;;;;1.40;0.32;;;24.70;31.80;;;;;;5047592;28;20047;-54
2022/05/01 07:45:31;;;;;;;0.98;0.30;;;24.70;31.80;;;;;;5048706;28;20149;-53
2022/05/01 07:47:59;;;;;;;1.67;0.50;;;24.70;32.40;;;;;;5047928;28;20565;-56
2022/05/01 07:50:27;;;;;;;1.27;0.25;;;24.70;31.70;;;;;;5029316;28;20677;-57
2022/05/01 07:52:55;;;;;;;0.57;0.20;;;24.70;31.70;;;;;;5047866;28;20497;-54
2022/05/01 07:55:22;;;;;;;1.20;0.20;;;24.70;31.70;;;;;;5047262;28;20044;-57
2022/05/01 07:57:49;;;;;;;1.45;0.20;;;24.70;31.70;;;;;;5049292;28;20047;-57
2022/05/01 08:00:17;;;;;;;0.20;0.15;;;24.70;31.70;;;;;;5047316;28;20041;-53
2022/05/01 08:05:29;;;;;;;0.90;0.10;;;24.80;32.30;;;;;;5046789;28;20044;-53
2022/05/01 08:07:58;;;;;;;0.30;0.30;;;24.70;31.60;;;;;;5028999;28;20418;-56
2022/05/01 08:10:25;;;;;;;0.32;0.30;;;24.80;31.70;;;;;;5047199;28;20049;-54
2022/05/01 08:12:52;;;;;;;0.52;0.10;;;24.80;31.70;;;;;;5048816;28;20041;-54
2022/05/01 08:15:20;;;;;;;0.20;0.10;;;24.80;31.60;;;;;;5041811;28;20049;-54
2022/05/01 08:17:48;;;;;;;0.20;0.20;;;24.80;31.60;;;;;;5046377;28;20136;-54
2022/05/01 08:23:06;;;;;;;0.80;0.20;;;24.80;31.60;;;;;;5041552;28;20041;-57
2022/05/01 08:25:34;;;;;;;1.20;0.22;;;24.80;31.50;;;;;;5028757;28;20124;-56
2022/05/01 08:28:02;;;;;;;1.75;0.20;;;24.80;31.50;;;;;;5030169;28;20041;-57
2022/05/01 08:30:30;;;;;;;0.55;0.20;;;24.80;31.40;;;;;;5047640;28;20041;-56
2022/05/01 08:32:57;;;;;;;3.08;0.40;;;24.80;31.40;;;;;;5046894;28;20433;-57
2022/05/01 08:35:24;;;;;;;0.85;0.50;;;24.80;31.40;;;;;;5046780;28;20045;-55
2022/05/01 08:37:51;;;;;;;2.30;0.50;;;24.80;31.40;;;;;;5028667;28;20127;-54
2022/05/01 08:40:19;;;;;;;0.77;0.28;;;24.80;31.40;;;;;;5046412;28;20521;-55
2022/05/01 08:42:47;;;;;;;0.30;0.25;;;24.90;31.40;;;;;;5048157;28;20051;-54
2022/05/01 08:45:17;;;;;;;0.57;0.40;;;24.90;31.40;;;;;;5046472;28;20040;-56
2022/05/01 08:47:53;;;;;;;0.40;0.40;;;24.90;31.40;;;;;;5046566;28;20045;-56
2022/05/01 08:50:21;;;;;;;0.50;0.50;;;24.90;31.30;;;;;;5046524;28;20064;-55
2022/05/01 08:52:49;;;;;;;0.52;0.38;;;24.90;31.30;;;;;;5045710;28;20036;-56
2022/05/01 08:55:19;;;;;;;0.50;0.30;;;24.90;31.30;;;;;;5046388;28;20052;-55
2022/05/01 08:57:47;;;;;;;1.58;0.50;;;24.90;31.30;;;;;;5046514;28;20040;-52
2022/05/01 09:00:16;;;;;;;0.85;0.35;;;24.90;31.20;;;;;;5017746;28;20411;-56
2022/05/01 09:02:43;;;;;;;1.50;0.30;;;24.90;31.20;;;;;;5043328;28;20203;-55
2022/05/01 09:05:11;;;;;;;1.05;0.30;;;25.00;31.20;;;;;;5045963;28;20045;-56
2022/05/01 09:07:39;;;;;;;0.82;0.38;;;24.90;31.20;;;;;;5045820;28;20131;-56
2022/05/01 09:10:09;;;;;;;0.90;0.43;;;24.90;31.10;;;;;;5046633;28;20056;-53
2022/05/01 09:12:53;;;;;;;0.73;0.73;;;24.90;31.10;;;;;;5047543;28;20107;-52
2022/05/01 09:15:31;;;;;;;1.98;0.95;;;25.00;31.10;;;;;;5045537;28;20079;-54
2022/05/01 09:18:03;;;;;;;1.30;0.30;;;25.00;31.10;;;;;;5045914;28;20510;-56
2022/05/01 09:20:31;;;;;;;2.38;0.77;;;25.00;31.10;;;;;;5043603;28;20057;-55
2022/05/01 09:22:59;;;;;;;1.80;0.73;;;25.00;31.10;;;;;;5045598;28;20047;-54
2022/05/01 09:25:28;;;;;;;1.58;0.70;;;25.00;31.10;;;;;;5045082;28;20061;-54
2022/05/01 09:27:59;;;;;;;2.28;0.82;;;25.00;31.00;;;;;;5047668;28;20529;-56
2022/05/01 09:30:34;;;;;;;2.00;0.52;;;25.00;31.00;;;;;;5045320;28;20064;-55
2022/05/01 09:33:02;;;;;;;1.48;0.43;;;25.00;31.00;;;;;;5045477;28;20041;-54
2022/05/01 09:35:32;;;;;;;1.52;0.80;;;25.00;31.00;;;;;;5027379;28;20037;-57
2022/05/01 09:38:20;;;;;;;3.45;0.90;;;25.00;31.00;;;;;;5045630;28;20051;-55
2022/05/01 09:40:48;;;;;;;1.35;1.02;;;25.10;31.00;;;;;;5039675;28;20033;-56
2022/05/01 09:43:38;;;;;;;2.20;0.95;;;25.10;31.10;;;;;;5045972;28;20152;-54
2022/05/01 09:46:13;;;;;;;1.25;0.55;;;25.10;30.90;;;;;;5043236;28;20069;-56
2022/05/01 09:48:42;;;;;;;2.15;1.58;;;25.10;30.90;;;;;;5047030;28;20145;-56
2022/05/01 09:51:16;;;;;;;2.55;1.10;;;25.10;30.90;;;;;;5045188;28;20073;-54
2022/05/01 09:53:44;;;;;;;2.53;1.30;;;25.10;30.90;;;;;;5045633;28;20137;-55
2022/05/01 09:56:12;;;;;;;2.58;1.02;;;25.10;30.90;;;;;;5045563;28;20048;-54
2022/05/01 09:58:43;;;;;;;3.05;1.30;;;25.20;30.90;;;;;;5045531;28;20567;-56
2022/05/01 10:01:12;;;;;;;1.75;1.05;;;25.20;30.90;;;;;;5045546;28;20041;-52
2022/05/01 10:03:41;;;;;;;1.05;0.95;;;25.20;30.90;;;;;;5046247;28;20064;-52
2022/05/01 10:06:11;;;;;;;2.05;1.00;;;25.20;30.80;;;;;;5044564;28;20041;-54
2022/05/01 10:08:39;;;;;;;1.80;1.05;;;25.20;30.80;;;;;;5045637;28;20106;-51
2022/05/01 10:11:07;;;;;;;3.50;0.93;;;25.20;30.80;;;;;;5045287;28;20072;-56
2022/05/01 10:13:35;;;;;;;2.50;2.13;;;25.30;30.80;;;;;;5045432;28;20088;-56
2022/05/01 10:16:08;;;;;;;1.55;1.25;;;25.30;30.80;;;;;;5046398;28;20744;-52
2022/05/01 10:18:36;;;;;;;2.50;1.60;;;25.30;30.80;;;;;;5044783;28;20053;-52
2022/05/01 10:21:03;;;;;;;2.95;1.55;;;25.30;30.70;;;;;;5027169;28;20102;-54
2022/05/01 10:23:31;;;;;;;3.63;1.77;;;25.30;30.70;;;;;;5044483;28;20540;-54
2022/05/01 10:26:07;;;;;;;2.17;1.00;;;25.30;30.70;;;;;;5045487;28;20048;-50
2022/05/01 10:29:04;;;;;;;3.88;1.67;;;25.40;30.70;;;;;;5039466;28;20045;-55
2022/05/01 10:32:24;;;;;;;2.35;1.45;;;25.40;30.60;;;;;;5027312;28;20056;-55
2022/05/01 10:35:37;;;;;;;5.10;1.58;;;25.40;30.60;;;;;;5014363;28;20091;-57
2022/05/01 10:38:17;;;;;;;1.35;1.23;;;25.40;30.70;;;;;;4963849;28;20548;-57
2022/05/01 10:40:49;;;;;;;3.50;1.58;;;25.40;30.70;;;;;;4941446;28;20051;-56
2022/05/01 10:43:25;;;;;;;3.67;2.55;;;25.40;30.70;;;;;;4964265;28;20491;-56
2022/05/01 10:45:53;;;;;;;3.00;1.85;;;25.40;30.70;;;;;;4965545;28;20086;-58
2022/05/01 10:48:36;;;;;;;3.85;1.10;;;25.40;30.70;;;;;;4963783;28;20425;-58
2022/05/01 10:51:40;;;;;;;1.77;1.65;;;25.50;30.60;;;;;;4963935;28;20051;-58
2022/05/01 10:54:39;;;;;;;3.55;2.30;;;25.50;30.70;;;;;;4963917;28;20126;-57
2022/05/01 10:57:17;;;;;;;3.70;1.38;;;25.50;30.60;;;;;;4963677;28;20093;-57
2022/05/01 10:59:47;;;;;;;2.90;0.98;;;25.50;30.60;;;;;;4963567;28;20480;-54
2022/05/01 11:02:25;;;;;;;3.15;1.77;;;25.50;30.60;;;;;;4963277;28;20155;-58
2022/05/01 11:04:55;;;;;;;3.65;2.00;;;25.60;30.70;;;;;;4963618;28;20379;-56
2022/05/01 11:07:25;;;;;;;4.65;2.47;;;25.60;30.70;;;;;;4963856;28;20050;-54
2022/05/01 11:09:53;;;;;;;2.55;1.05;;;25.60;30.70;;;;;;4965735;28;20050;-56
2022/05/01 11:12:22;;;;;;;2.95;0.95;;;25.60;30.60;;;;;;4963095;28;20039;-55
2022/05/01 11:14:54;;;;;;;3.50;1.30;;;25.70;30.70;;;;;;5026865;28;20135;-57
2022/05/01 11:17:54;;;;;;;4.40;1.52;;;25.70;30.60;;;;;;5047669;28;20040;-57
2022/05/01 11:20:41;;;;;;;1.50;1.10;;;25.70;30.50;;;;;;5040030;28;20072;-55
2022/05/01 11:23:33;;;;;;;2.22;1.08;;;25.70;30.50;;;;;;5047819;28;20529;-58
2022/05/01 11:26:14;;;;;;;3.08;1.52;;;25.70;30.50;;;;;;5048387;28;20546;-60
2022/05/01 11:28:47;;;;;;;3.85;1.60;;;25.70;30.50;;;;;;5046713;28;20065;-57
2022/05/01 11:31:48;;;;;;;4.18;2.50;;;25.70;30.60;;;;;;5048264;28;20760;-54
2022/05/01 11:34:51;;;;;;;3.72;1.70;;;25.70;30.50;;;;;;5046215;28;20848;-57
2022/05/01 11:37:21;;;;;;;5.18;1.55;;;25.80;30.50;;;;;;5047767;28;20077;-56
2022/05/01 11:40:23;;;;;;;3.72;1.60;;;25.70;30.50;;;;;;5049603;28;20055;-56
2022/05/01 11:42:51;;;;;;;2.65;1.63;;;25.80;30.50;;;;;;5049573;28;20688;-55
2022/05/01 11:45:19;;;;;;;2.33;1.50;;;25.80;31.10;;;;;;5047717;28;20064;-55
2022/05/01 11:47:51;;;;;;;2.88;1.98;;;25.80;30.40;;;;;;5041466;28;20135;-53
2022/05/01 11:50:24;;;;;;;4.00;1.77;;;25.90;30.40;;;;;;5041517;28;20119;-57
2022/05/01 11:52:57;;;;;;;2.80;0.95;;;25.90;30.40;;;;;;5047680;28;20043;-55
2022/05/01 12:03:39;;;;;;;4.35;1.25;;;26.00;30.30;;;;;;5048231;28;20045;-57
2022/05/01 12:06:06;;;;;;;3.90;2.30;;;26.00;30.40;;;;;;5047118;28;20040;-58
2022/05/01 12:08:49;;;;;;;1.63;0.88;;;26.10;30.40;;;;;;5047623;28;20068;-53
2022/05/01 12:11:31;;;;;;;2.05;1.05;;;26.10;30.30;;;;;;5047214;28;20037;-57
2022/05/01 12:14:07;;;;;;;2.13;1.23;;;26.20;30.30;;;;;;5047339;28;20048;-57
2022/05/01 12:16:34;;;;;;;3.75;1.77;;;26.20;30.30;;;;;;5041274;28;20044;-58
2022/05/01 12:19:01;;;;;;;3.50;1.50;;;26.30;30.30;;;;;;5048892;28;20094;-56
2022/05/01 12:21:29;;;;;;;2.13;1.52;;;26.30;30.30;;;;;;5047270;28;20581;-51
2022/05/01 12:24:04;;;;;;;4.50;2.30;;;26.40;30.30;;;;;;5046878;28;20041;-56
2022/05/01 12:26:34;;;;;;;2.67;1.58;;;26.40;30.20;;;;;;5046462;28;20568;-58
2022/05/01 12:29:01;;;;;;;3.92;1.98;;;26.50;30.20;;;;;;5045945;28;20041;-58
2022/05/01 12:31:29;;;;;;;5.13;2.10;;;26.50;30.10;;;;;;5046868;28;20454;-55
2022/05/01 12:33:57;;;;;;;4.13;2.22;;;26.50;30.10;;;;;;5048518;28;20729;-58
2022/05/01 12:36:25;;;;;;;4.07;1.85;;;26.60;30.10;;;;;;5046333;28;20406;-57
2022/05/01 12:39:01;;;;;;;4.85;1.83;;;26.60;30.00;;;;;;5046401;28;20298;-55
2022/05/01 12:44:15;;;;;;;2.55;1.63;;;26.80;30.00;;;;;;5045988;28;20503;-57
2022/05/01 12:46:52;;;;;;;3.42;1.38;;;26.80;30.00;;;;;;5046450;28;20502;-56
2022/05/01 12:49:26;;;;;;;4.22;2.17;;;26.90;30.00;;;;;;5046338;28;20056;-55
2022/05/01 12:51:53;;;;;;;2.30;1.77;;;26.90;30.00;;;;;;5047313;28;20516;-57
2022/05/01 12:54:20;;;;;;;4.18;2.13;;;27.00;29.90;;;;;;5046120;28;20044;-55
2022/05/01 12:56:49;;;;;;;4.18;2.72;;;27.00;29.80;;;;;;5046036;28;20174;-57
2022/05/01 12:59:27;;;;;;;3.63;1.60;;;27.10;29.80;;;;;;5045848;28;20128;-57
2022/05/01 13:01:57;;;;;;;5.32;2.05;;;27.20;29.80;;;;;;5045664;28;20107;-57
2022/05/01 13:04:25;;;;;;;3.90;2.20;;;27.30;29.80;;;;;;5046228;28;20465;-58
2022/05/01 13:06:53;;;;;;;1.80;1.35;;;27.30;29.70;;;;;;5047919;28;20417;-56
2022/05/01 13:09:21;;;;;;;4.53;2.85;;;27.40;29.70;;;;;;5045992;28;20049;-56
2022/05/01 13:12:04;;;;;;;4.85;2.05;;;27.40;29.60;;;;;;5045878;28;20127;-57
2022/05/01 13:14:33;;;;;;;4.03;2.03;;;27.50;29.60;;;;;;5045313;28;20111;-54
2022/05/01 13:17:11;;;;;;;5.55;2.65;;;27.50;29.60;;;;;;5045720;28;20048;-56
2022/05/01 13:19:38;;;;;;;3.38;1.77;;;27.60;29.50;;;;;;5036250;28;20040;-55
2022/05/01 13:22:07;;;;;;;5.63;2.33;;;27.60;29.50;;;;;;5046561;28;20124;-57
2022/05/01 13:24:36;;;;;;;3.10;2.08;;;27.60;29.50;;;;;;5046844;28;20096;-57
2022/05/01 13:27:06;;;;;;;6.90;2.97;;;27.70;29.40;;;;;;5020789;28;20584;-56
2022/05/01 13:29:36;;;;;;;5.93;2.90;;;27.70;29.40;;;;;;5045631;28;20509;-55
2022/05/01 13:32:06;;;;;;;4.03;2.03;;;27.80;29.40;;;;;;5045666;28;20106;-54
2022/05/01 13:34:34;;;;;;;4.88;2.22;;;27.90;29.40;;;;;;5041069;28;20044;-54